Terminal Aerodrome Forecast
Issued by NWS

Home | Current Version | Previous Version | Text Only | Print | Product List | Glossary On
Versions: 1 2 3 4 5 6 7 8 9 10 11 12 13 14 15 16 17 18 19 20 21 22
901
FTUS46 KMTR 201605 AAB
TAFOAK
TAF AMD
KOAK 201605Z 2016/2118 26008KT P6SM SCT012
      TEMPO 2016/2017 BKN011
     FM202100 26015G22KT P6SM SKC
     FM210400 27015KT P6SM FEW010
     FM210800 27010KT P6SM SCT010
     FM211200 26006KT P6SM BKN009
     FM211500 26005KT P6SM SCT010=

USA.gov is the U.S. government's official web portal to all federal, state and local government web resources and services.